Time;durP1;ratioP1;P1;durP2;ratioP2;P2;SDS_P1;SDS_P2;PMS_P1;PMS_P2;Temp;Humidity;BMP_temperature;BMP_pressure;BME280_temperature;BME280_humidity;BME280_pressure;Samples;Min_cycle;Max_cycle;Signal;HPM_P1;HPM_P2
2023/04/23 00:00:47;;;;;;;4.93;1.83;;;;;;;;;;4974741;28;20038;-77
2023/04/23 00:03:13;;;;;;;3.25;1.70;;;;;;;;;;4970322;28;20038;-76
2023/04/23 00:05:41;;;;;;;2.65;1.95;;;;;;;;;;4971024;28;20085;-77
2023/04/23 00:08:09;;;;;;;2.78;1.70;;;;;;;;;;4970512;28;20027;-76
2023/04/23 00:10:34;;;;;;;3.05;1.80;;;;;;;;;;4970837;28;20023;-76
2023/04/23 00:13:00;;;;;;;3.53;2.00;;;;;;;;;;4971372;28;20022;-76
2023/04/23 00:15:26;;;;;;;1.70;1.30;;;;;;;;;;4967936;28;20431;-76
2023/04/23 00:17:52;;;;;;;2.20;2.00;;;;;;;;;;4968643;28;20181;-75
2023/04/23 00:20:17;;;;;;;2.30;1.75;;;;;;;;;;4968171;28;20563;-76
2023/04/23 00:22:43;;;;;;;2.38;2.13;;;;;;;;;;4967990;28;20029;-76
2023/04/23 00:25:09;;;;;;;2.65;1.95;;;;;;;;;;4967786;28;20081;-75
2023/04/23 00:27:35;;;;;;;2.40;2.00;;;;;;;;;;4968231;28;20027;-75
2023/04/23 00:30:02;;;;;;;4.75;2.00;;;;;;;;;;4968434;28;20034;-76
2023/04/23 00:32:27;;;;;;;2.20;2.00;;;;;;;;;;4968974;28;20030;-76
2023/04/23 00:34:54;;;;;;;3.30;2.03;;;;;;;;;;4967061;28;20054;-76
2023/04/23 00:37:19;;;;;;;3.58;1.90;;;;;;;;;;4967131;28;20110;-76
2023/04/23 00:39:45;;;;;;;3.15;2.17;;;;;;;;;;4968334;28;20098;-76
2023/04/23 00:42:11;;;;;;;3.53;2.45;;;;;;;;;;4971492;28;20586;-76
2023/04/23 00:44:37;;;;;;;2.30;2.10;;;;;;;;;;4968256;28;20038;-75
2023/04/23 00:47:04;;;;;;;2.72;2.10;;;;;;;;;;4971911;28;20023;-75
2023/04/23 00:49:30;;;;;;;3.05;1.95;;;;;;;;;;4967987;28;20476;-76
2023/04/23 00:51:55;;;;;;;2.25;2.05;;;;;;;;;;4968268;28;20045;-76
2023/04/23 00:54:21;;;;;;;4.13;1.80;;;;;;;;;;4970943;28;20037;-76
2023/04/23 00:56:47;;;;;;;2.15;1.95;;;;;;;;;;4970681;28;20030;-76
2023/04/23 00:59:13;;;;;;;3.65;2.33;;;;;;;;;;4968847;28;20027;-76
2023/04/23 01:01:39;;;;;;;1.90;1.80;;;;;;;;;;4971768;28;20062;-77
2023/04/23 01:04:05;;;;;;;1.67;1.58;;;;;;;;;;4973027;28;20027;-78
2023/04/23 01:06:31;;;;;;;1.90;1.80;;;;;;;;;;4974397;28;20019;-78
2023/04/23 01:08:57;;;;;;;2.70;1.90;;;;;;;;;;4974627;28;20018;-79
2023/04/23 01:11:23;;;;;;;3.20;2.20;;;;;;;;;;4981856;28;20026;-77
2023/04/23 01:13:49;;;;;;;2.33;1.70;;;;;;;;;;4978576;28;20059;-76
2023/04/23 01:16:15;;;;;;;2.17;1.80;;;;;;;;;;4985801;28;20026;-78
2023/04/23 01:18:40;;;;;;;2.65;1.80;;;;;;;;;;4974251;28;20027;-78
2023/04/23 01:21:09;;;;;;;2.63;1.70;;;;;;;;;;4980203;28;20027;-77
2023/04/23 01:23:34;;;;;;;3.17;1.80;;;;;;;;;;4980507;28;20281;-77
2023/04/23 01:26:00;;;;;;;1.98;1.75;;;;;;;;;;4980520;28;20030;-78
2023/04/23 01:28:25;;;;;;;3.33;1.55;;;;;;;;;;4981360;28;20081;-77
2023/04/23 01:30:51;;;;;;;2.28;1.60;;;;;;;;;;4981257;28;20030;-78
2023/04/23 01:33:18;;;;;;;2.72;1.80;;;;;;;;;;4980024;28;20484;-77
2023/04/23 01:35:44;;;;;;;2.45;2.00;;;;;;;;;;4976055;28;20031;-76
2023/04/23 01:38:10;;;;;;;2.63;2.05;;;;;;;;;;4972987;28;20023;-77
2023/04/23 01:40:36;;;;;;;2.80;2.05;;;;;;;;;;4975098;28;20034;-77
2023/04/23 01:43:02;;;;;;;3.35;1.83;;;;;;;;;;4977826;28;20046;-77
2023/04/23 01:45:29;;;;;;;2.35;2.15;;;;;;;;;;4976155;28;20038;-77
2023/04/23 01:47:55;;;;;;;2.47;2.17;;;;;;;;;;4977475;28;20612;-77
2023/04/23 01:50:23;;;;;;;2.58;2.10;;;;;;;;;;4974118;28;20488;-77
2023/04/23 01:52:48;;;;;;;2.38;2.10;;;;;;;;;;4976611;28;20027;-77
2023/04/23 01:55:14;;;;;;;3.28;2.63;;;;;;;;;;4973443;28;20019;-77
2023/04/23 01:57:39;;;;;;;1.98;1.75;;;;;;;;;;4981700;28;20042;-77
2023/04/23 02:00:10;;;;;;;1.73;1.45;;;;;;;;;;4976004;28;20023;-77
2023/04/23 02:02:36;;;;;;;2.55;1.83;;;;;;;;;;4970358;28;20026;-76
2023/04/23 02:05:03;;;;;;;4.20;2.70;;;;;;;;;;4968486;28;20298;-77
2023/04/23 02:07:33;;;;;;;2.63;1.83;;;;;;;;;;4971621;28;20040;-77
2023/04/23 02:09:58;;;;;;;4.10;2.47;;;;;;;;;;4970720;28;20502;-77
2023/04/23 02:12:25;;;;;;;2.33;2.13;;;;;;;;;;4970188;28;20026;-77
2023/04/23 02:14:51;;;;;;;3.33;2.10;;;;;;;;;;4970992;28;20041;-77
2023/04/23 02:17:19;;;;;;;2.63;2.42;;;;;;;;;;4975428;28;20027;-77
2023/04/23 02:19:44;;;;;;;4.32;2.50;;;;;;;;;;4972550;28;20058;-77
2023/04/23 02:22:09;;;;;;;1.85;1.75;;;;;;;;;;4972319;28;20046;-77
2023/04/23 02:24:35;;;;;;;3.35;2.33;;;;;;;;;;4971744;28;20030;-77
2023/04/23 02:27:00;;;;;;;2.25;1.83;;;;;;;;;;4973226;28;20466;-77
2023/04/23 02:29:26;;;;;;;2.63;2.33;;;;;;;;;;4974190;28;20423;-77
2023/04/23 02:31:51;;;;;;;2.20;1.73;;;;;;;;;;4979348;28;20026;-77
2023/04/23 02:34:17;;;;;;;2.67;2.25;;;;;;;;;;4975408;28;20406;-77
2023/04/23 02:36:42;;;;;;;2.17;1.75;;;;;;;;;;4972934;28;20178;-77
2023/04/23 02:39:08;;;;;;;2.70;2.10;;;;;;;;;;4972109;28;20479;-77
2023/04/23 02:41:33;;;;;;;3.03;2.40;;;;;;;;;;4976843;28;20041;-77
2023/04/23 02:43:58;;;;;;;2.35;2.10;;;;;;;;;;4973479;28;20030;-76
2023/04/23 02:46:24;;;;;;;2.63;2.13;;;;;;;;;;4976960;28;20105;-76
2023/04/23 02:48:49;;;;;;;1.88;1.75;;;;;;;;;;4969660;28;20093;-77
2023/04/23 02:51:15;;;;;;;4.40;2.25;;;;;;;;;;4969828;28;20029;-77
2023/04/23 02:53:40;;;;;;;2.38;1.60;;;;;;;;;;4985114;28;20027;-76
2023/04/23 02:56:06;;;;;;;2.78;2.25;;;;;;;;;;4970290;28;20039;-77
2023/04/23 02:58:32;;;;;;;2.70;2.10;;;;;;;;;;4967009;28;20061;-78
2023/04/23 03:00:58;;;;;;;2.55;2.35;;;;;;;;;;4971314;28;20053;-78
2023/04/23 03:03:25;;;;;;;2.80;2.60;;;;;;;;;;4969796;28;20054;-78
2023/04/23 03:05:51;;;;;;;3.45;2.25;;;;;;;;;;4972460;28;20061;-78
2023/04/23 03:08:16;;;;;;;3.63;2.63;;;;;;;;;;4973990;28;20073;-78
2023/04/23 03:10:42;;;;;;;2.75;2.40;;;;;;;;;;4970717;28;20420;-78
2023/04/23 03:13:07;;;;;;;2.35;2.15;;;;;;;;;;4969516;28;20031;-77
2023/04/23 03:15:33;;;;;;;1.63;1.48;;;;;;;;;;4969136;28;20031;-78
2023/04/23 03:18:00;;;;;;;3.95;3.15;;;;;;;;;;4974265;28;20114;-77
2023/04/23 03:20:26;;;;;;;2.88;2.67;;;;;;;;;;4968929;28;20030;-78
2023/04/23 03:22:51;;;;;;;2.85;2.53;;;;;;;;;;4969411;28;20113;-77
2023/04/23 03:25:17;;;;;;;1.85;1.75;;;;;;;;;;4968843;28;20118;-77
2023/04/23 03:27:43;;;;;;;3.33;2.92;;;;;;;;;;4970092;28;20098;-78
2023/04/23 03:30:09;;;;;;;2.92;2.30;;;;;;;;;;4969015;28;20018;-77
2023/04/23 03:32:35;;;;;;;2.75;2.53;;;;;;;;;;4969677;28;20549;-77
2023/04/23 03:35:00;;;;;;;3.22;2.78;;;;;;;;;;4968097;28;20031;-78
2023/04/23 03:37:26;;;;;;;4.15;2.08;;;;;;;;;;4970301;28;20037;-78
2023/04/23 03:39:52;;;;;;;4.95;2.42;;;;;;;;;;4968391;28;20069;-78
2023/04/23 03:42:17;;;;;;;3.53;2.75;;;;;;;;;;4968651;28;20026;-78
2023/04/23 03:44:43;;;;;;;3.92;2.38;;;;;;;;;;4968173;28;20030;-78
2023/04/23 03:47:08;;;;;;;1.85;1.75;;;;;;;;;;4971671;28;20041;-78
2023/04/23 03:49:34;;;;;;;2.40;2.15;;;;;;;;;;4967997;28;20035;-79
2023/04/23 03:51:59;;;;;;;2.22;2.00;;;;;;;;;;4971329;28;20034;-78
2023/04/23 03:54:27;;;;;;;3.25;2.45;;;;;;;;;;4984780;28;20027;-78
2023/04/23 03:56:52;;;;;;;3.17;2.42;;;;;;;;;;4971630;28;20039;-78
2023/04/23 03:59:18;;;;;;;4.93;3.10;;;;;;;;;;4968280;28;20023;-78
2023/04/23 04:01:43;;;;;;;2.60;2.35;;;;;;;;;;4973068;28;20030;-78
2023/04/23 04:04:08;;;;;;;2.15;2.00;;;;;;;;;;4970293;28;20030;-79
2023/04/23 04:06:35;;;;;;;3.13;2.63;;;;;;;;;;4970165;28;20527;-78
2023/04/23 04:09:00;;;;;;;3.08;2.47;;;;;;;;;;4968295;28;20034;-77
2023/04/23 04:11:25;;;;;;;2.47;2.22;;;;;;;;;;4968134;28;20110;-79
2023/04/23 04:13:51;;;;;;;3.83;2.50;;;;;;;;;;4973047;28;20113;-78
2023/04/23 04:16:16;;;;;;;2.22;2.08;;;;;;;;;;4970781;28;20085;-79
2023/04/23 04:18:42;;;;;;;3.55;2.58;;;;;;;;;;4968007;28;20069;-78
2023/04/23 04:21:07;;;;;;;3.72;2.47;;;;;;;;;;4973568;28;20080;-79
2023/04/23 04:23:33;;;;;;;2.55;2.05;;;;;;;;;;4968009;28;20029;-78
2023/04/23 04:25:59;;;;;;;2.53;2.33;;;;;;;;;;4973691;28;20056;-78
2023/04/23 04:28:25;;;;;;;1.58;1.48;;;;;;;;;;4971489;28;20415;-78
2023/04/23 04:30:52;;;;;;;2.70;2.35;;;;;;;;;;4969374;28;20100;-79
2023/04/23 04:33:19;;;;;;;2.63;2.28;;;;;;;;;;4968937;28;20023;-78
2023/04/23 04:35:46;;;;;;;3.13;2.70;;;;;;;;;;4984298;28;20030;-77
2023/04/23 04:38:12;;;;;;;4.65;2.60;;;;;;;;;;4972491;28;20082;-78
2023/04/23 04:40:37;;;;;;;2.35;2.13;;;;;;;;;;4967360;28;20035;-77
2023/04/23 04:43:06;;;;;;;2.80;2.55;;;;;;;;;;4968517;28;20474;-76
2023/04/23 04:45:31;;;;;;;3.03;2.60;;;;;;;;;;4968806;28;20126;-76
2023/04/23 04:47:56;;;;;;;3.47;2.70;;;;;;;;;;4967081;28;20105;-76
2023/04/23 04:50:22;;;;;;;2.58;2.38;;;;;;;;;;4964913;28;20094;-76
2023/04/23 04:52:47;;;;;;;4.30;2.10;;;;;;;;;;4968726;28;20041;-76
2023/04/23 04:55:13;;;;;;;3.03;2.50;;;;;;;;;;4965738;28;20035;-76
2023/04/23 04:57:38;;;;;;;2.08;1.63;;;;;;;;;;4967022;28;20085;-76
2023/04/23 05:00:21;;;;;;;1.92;1.65;;;;;;;;;;4965452;28;20046;-76
2023/04/23 05:02:48;;;;;;;2.40;1.75;;;;;;;;;;4965640;28;20085;-76
2023/04/23 05:05:14;;;;;;;1.60;1.45;;;;;;;;;;4978675;28;20109;-76
2023/04/23 05:07:39;;;;;;;2.38;1.80;;;;;;;;;;4965950;28;20106;-76
2023/04/23 05:10:05;;;;;;;2.33;1.48;;;;;;;;;;4965263;28;20121;-76
2023/04/23 05:12:30;;;;;;;2.72;2.00;;;;;;;;;;4965052;28;20395;-76
2023/04/23 05:14:56;;;;;;;2.40;2.20;;;;;;;;;;4965090;28;20121;-76
2023/04/23 05:17:22;;;;;;;2.60;2.40;;;;;;;;;;4968392;28;20112;-76
2023/04/23 05:19:47;;;;;;;3.17;1.67;;;;;;;;;;4964688;28;20432;-77
2023/04/23 05:22:13;;;;;;;3.50;2.88;;;;;;;;;;4964126;28;20538;-76
2023/04/23 05:24:39;;;;;;;3.42;3.13;;;;;;;;;;4965054;28;20058;-75
2023/04/23 05:27:05;;;;;;;7.18;3.92;;;;;;;;;;4967096;28;20954;-77
2023/04/23 05:29:30;;;;;;;5.95;3.75;;;;;;;;;;4980486;28;20682;-77
2023/04/23 05:31:55;;;;;;;4.95;3.55;;;;;;;;;;4967302;28;20141;-77
2023/04/23 05:34:21;;;;;;;1.55;1.35;;;;;;;;;;4965402;28;20022;-77
2023/04/23 05:36:46;;;;;;;6.05;4.57;;;;;;;;;;4966518;28;20030;-76
2023/04/23 05:39:11;;;;;;;5.35;3.22;;;;;;;;;;4964993;28;20022;-77
2023/04/23 05:41:37;;;;;;;5.85;4.18;;;;;;;;;;4964315;28;20039;-77
2023/04/23 05:44:02;;;;;;;7.75;4.88;;;;;;;;;;4964329;28;20031;-75
2023/04/23 05:46:28;;;;;;;7.57;5.38;;;;;;;;;;4962437;28;20038;-77
2023/04/23 05:48:53;;;;;;;7.18;4.68;;;;;;;;;;4968383;28;20027;-75
2023/04/23 05:51:19;;;;;;;4.30;3.45;;;;;;;;;;4970912;28;20058;-77
2023/04/23 05:53:44;;;;;;;6.93;4.85;;;;;;;;;;4972404;28;20046;-78
2023/04/23 05:56:10;;;;;;;6.00;4.35;;;;;;;;;;4976189;28;20100;-78
2023/04/23 05:58:37;;;;;;;6.97;3.90;;;;;;;;;;4982723;28;20045;-78
2023/04/23 06:01:03;;;;;;;4.55;2.42;;;;;;;;;;4980255;28;20101;-78
2023/04/23 06:03:28;;;;;;;6.25;5.03;;;;;;;;;;4980242;28;20030;-77
2023/04/23 06:05:54;;;;;;;7.97;5.38;;;;;;;;;;4974019;28;20019;-78
2023/04/23 06:08:19;;;;;;;7.20;4.80;;;;;;;;;;4970585;28;20118;-77
2023/04/23 06:10:45;;;;;;;3.50;3.03;;;;;;;;;;4973599;28;20014;-77
2023/04/23 06:13:11;;;;;;;7.78;5.65;;;;;;;;;;4975725;28;20022;-78
2023/04/23 06:15:36;;;;;;;8.02;5.85;;;;;;;;;;4978511;28;20720;-79
2023/04/23 06:18:02;;;;;;;4.95;3.75;;;;;;;;;;4974267;28;20031;-78
2023/04/23 06:20:28;;;;;;;5.35;3.80;;;;;;;;;;4969537;28;20081;-78
2023/04/23 06:22:54;;;;;;;10.25;7.32;;;;;;;;;;4969907;28;20035;-82
2023/04/23 06:25:19;;;;;;;10.00;7.35;;;;;;;;;;4973620;28;20118;-79
2023/04/23 06:27:45;;;;;;;9.98;7.43;;;;;;;;;;4971522;28;20026;-77
2023/04/23 06:30:11;;;;;;;10.32;7.32;;;;;;;;;;4971371;28;20045;-78
2023/04/23 06:32:36;;;;;;;11.23;8.00;;;;;;;;;;4970222;28;20109;-78
2023/04/23 06:35:03;;;;;;;10.52;7.30;;;;;;;;;;4973325;28;20053;-79
2023/04/23 06:37:30;;;;;;;10.18;6.72;;;;;;;;;;4973709;28;20026;-79
2023/04/23 06:39:57;;;;;;;11.35;8.38;;;;;;;;;;4972157;28;20021;-79
2023/04/23 06:42:22;;;;;;;12.02;8.10;;;;;;;;;;4970117;28;20023;-79
2023/04/23 06:44:48;;;;;;;12.25;8.27;;;;;;;;;;4973437;28;20601;-77
2023/04/23 06:47:13;;;;;;;10.88;7.65;;;;;;;;;;4974781;28;20050;-77
2023/04/23 06:49:39;;;;;;;11.70;7.43;;;;;;;;;;4976418;28;20023;-77
2023/04/23 06:52:05;;;;;;;9.88;7.00;;;;;;;;;;4976930;28;20081;-77
2023/04/23 06:54:30;;;;;;;8.95;6.28;;;;;;;;;;4978087;28;20031;-77
2023/04/23 06:56:56;;;;;;;9.30;6.50;;;;;;;;;;4979039;28;20033;-77
2023/04/23 06:59:21;;;;;;;8.80;6.38;;;;;;;;;;4981991;28;20019;-76
2023/04/23 07:01:47;;;;;;;8.43;6.20;;;;;;;;;;4979407;28;20026;-77
2023/04/23 07:04:12;;;;;;;8.95;6.18;;;;;;;;;;4976864;28;20041;-77
2023/04/23 07:06:38;;;;;;;8.32;6.07;;;;;;;;;;4978138;28;20023;-77
2023/04/23 07:09:03;;;;;;;8.00;6.03;;;;;;;;;;4978153;28;20021;-77
2023/04/23 07:11:30;;;;;;;7.65;5.78;;;;;;;;;;4978416;28;20075;-76
2023/04/23 07:13:56;;;;;;;7.60;5.85;;;;;;;;;;4978267;28;20069;-77
2023/04/23 07:16:23;;;;;;;6.75;5.53;;;;;;;;;;4978276;28;20027;-78
2023/04/23 07:18:49;;;;;;;7.28;5.40;;;;;;;;;;4975153;28;20699;-78
2023/04/23 07:21:14;;;;;;;6.28;4.75;;;;;;;;;;4978897;28;20062;-77
2023/04/23 07:23:40;;;;;;;5.68;4.82;;;;;;;;;;4980437;28;20112;-77
2023/04/23 07:26:05;;;;;;;6.72;5.25;;;;;;;;;;4978789;28;20038;-77
2023/04/23 07:28:31;;;;;;;7.30;5.18;;;;;;;;;;4979215;28;20119;-77
2023/04/23 07:30:57;;;;;;;7.90;5.50;;;;;;;;;;4980770;28;20077;-77
2023/04/23 07:33:23;;;;;;;6.20;4.78;;;;;;;;;;4974599;28;20030;-78
2023/04/23 07:35:48;;;;;;;5.13;4.55;;;;;;;;;;4992865;28;20117;-77
2023/04/23 07:38:14;;;;;;;6.03;4.13;;;;;;;;;;4978934;28;20034;-78
2023/04/23 07:40:39;;;;;;;4.22;3.25;;;;;;;;;;4977456;28;20019;-77
2023/04/23 07:43:05;;;;;;;4.00;3.60;;;;;;;;;;4981179;28;20031;-77
2023/04/23 07:45:30;;;;;;;2.28;1.85;;;;;;;;;;4977223;28;20120;-76
2023/04/23 07:47:56;;;;;;;3.90;3.08;;;;;;;;;;4978590;28;20058;-77
2023/04/23 07:50:21;;;;;;;3.33;2.95;;;;;;;;;;4992293;28;20058;-77
2023/04/23 07:52:47;;;;;;;4.30;3.35;;;;;;;;;;4980754;28;20032;-77
2023/04/23 07:55:12;;;;;;;6.63;3.20;;;;;;;;;;4979127;28;20027;-77
2023/04/23 07:57:37;;;;;;;2.13;1.92;;;;;;;;;;4990379;28;20423;-77
2023/04/23 08:00:04;;;;;;;2.95;2.65;;;;;;;;;;4977463;28;20041;-78
2023/04/23 08:02:29;;;;;;;3.45;2.70;;;;;;;;;;4992500;28;20038;-77
2023/04/23 08:04:55;;;;;;;2.63;2.42;;;;;;;;;;4977844;28;20018;-77
2023/04/23 08:07:20;;;;;;;3.22;2.63;;;;;;;;;;4983191;28;20015;-77
2023/04/23 08:09:46;;;;;;;2.97;2.20;;;;;;;;;;4974275;28;20179;-77
2023/04/23 08:12:11;;;;;;;2.00;1.85;;;;;;;;;;4976263;28;20061;-76
2023/04/23 08:14:36;;;;;;;1.67;1.58;;;;;;;;;;4990982;28;20034;-77
2023/04/23 08:17:02;;;;;;;2.50;1.48;;;;;;;;;;4975383;28;20022;-76
2023/04/23 08:19:31;;;;;;;2.55;1.40;;;;;;;;;;4991230;28;20027;-78
2023/04/23 08:21:56;;;;;;;2.15;1.73;;;;;;;;;;4979020;28;20018;-77
2023/04/23 08:24:22;;;;;;;2.47;1.60;;;;;;;;;;4988042;28;20117;-78
2023/04/23 08:26:47;;;;;;;1.90;1.67;;;;;;;;;;4976848;28;20136;-77
2023/04/23 08:29:12;;;;;;;1.60;1.50;;;;;;;;;;4977413;28;20023;-77
2023/04/23 08:31:38;;;;;;;1.70;1.30;;;;;;;;;;4974896;28;20037;-77
2023/04/23 08:34:03;;;;;;;1.33;1.23;;;;;;;;;;4978556;28;20422;-77
2023/04/23 08:36:29;;;;;;;1.95;1.35;;;;;;;;;;4972098;28;20086;-78
2023/04/23 08:38:54;;;;;;;1.88;1.63;;;;;;;;;;4974775;28;20026;-77
2023/04/23 08:41:25;;;;;;;2.15;1.45;;;;;;;;;;4973198;28;20262;-76
2023/04/23 08:43:52;;;;;;;1.40;1.30;;;;;;;;;;4975522;28;20030;-77
2023/04/23 08:46:18;;;;;;;2.08;1.48;;;;;;;;;;4970967;28;20038;-78
2023/04/23 08:48:44;;;;;;;2.10;1.52;;;;;;;;;;4980119;28;20049;-79
2023/04/23 08:51:16;;;;;;;1.92;1.50;;;;;;;;;;4974383;28;20031;-77
2023/04/23 08:53:43;;;;;;;1.85;1.48;;;;;;;;;;4973121;28;20030;-77
2023/04/23 08:56:08;;;;;;;1.50;1.40;;;;;;;;;;4970796;28;20038;-77
2023/04/23 08:58:34;;;;;;;1.80;1.70;;;;;;;;;;4977263;28;20050;-77
2023/04/23 09:01:02;;;;;;;1.40;1.30;;;;;;;;;;4970161;28;20050;-77
2023/04/23 09:03:28;;;;;;;1.40;1.30;;;;;;;;;;4989957;28;20423;-78
2023/04/23 09:05:54;;;;;;;1.58;1.48;;;;;;;;;;4971482;28;20030;-77
2023/04/23 09:08:20;;;;;;;1.50;1.30;;;;;;;;;;4973967;28;20027;-77
2023/04/23 09:10:46;;;;;;;1.73;1.45;;;;;;;;;;4990878;28;20027;-78
2023/04/23 09:13:12;;;;;;;1.60;1.50;;;;;;;;;;4976455;28;20031;-77
2023/04/23 09:15:42;;;;;;;1.45;1.35;;;;;;;;;;4959791;28;20027;-77
2023/04/23 09:18:08;;;;;;;1.35;1.25;;;;;;;;;;4976125;28;20185;-78
2023/04/23 09:20:33;;;;;;;1.67;1.48;;;;;;;;;;4984938;28;20694;-77
2023/04/23 09:22:59;;;;;;;1.40;1.27;;;;;;;;;;4975206;28;20029;-78
2023/04/23 09:25:25;;;;;;;1.67;1.38;;;;;;;;;;4966279;28;20026;-76
2023/04/23 09:27:51;;;;;;;1.15;1.10;;;;;;;;;;4968132;28;20029;-78
2023/04/23 09:30:18;;;;;;;1.98;1.20;;;;;;;;;;4972497;28;20038;-77
2023/04/23 09:32:45;;;;;;;1.63;1.48;;;;;;;;;;4971619;28;20149;-77
2023/04/23 09:35:15;;;;;;;1.58;1.48;;;;;;;;;;4967832;28;20050;-77
2023/04/23 09:37:49;;;;;;;3.60;2.80;;;;;;;;;;4967409;28;20015;-78
2023/04/23 09:40:16;;;;;;;1.48;1.38;;;;;;;;;;4969810;28;20510;-77
2023/04/23 09:42:47;;;;;;;1.40;1.30;;;;;;;;;;4971363;28;20046;-77
2023/04/23 09:45:13;;;;;;;2.90;2.10;;;;;;;;;;4966397;28;20117;-77
2023/04/23 09:47:50;;;;;;;3.40;1.33;;;;;;;;;;4971560;28;20038;-77
2023/04/23 09:50:15;;;;;;;2.15;1.58;;;;;;;;;;4967683;28;20035;-77
2023/04/23 09:52:40;;;;;;;1.73;1.63;;;;;;;;;;4969513;28;20022;-78
2023/04/23 09:55:06;;;;;;;2.42;1.88;;;;;;;;;;4967257;28;20030;-77
2023/04/23 09:57:37;;;;;;;1.88;1.70;;;;;;;;;;4969059;28;20026;-77
2023/04/23 10:00:21;;;;;;;2.55;2.15;;;;;;;;;;4968568;28;20026;-77
2023/04/23 10:02:50;;;;;;;2.03;1.92;;;;;;;;;;4968716;28;20125;-78
2023/04/23 10:05:21;;;;;;;1.00;0.95;;;;;;;;;;4966552;28;20034;-78
2023/04/23 10:07:50;;;;;;;2.75;1.70;;;;;;;;;;4967376;28;20041;-77
2023/04/23 10:10:16;;;;;;;2.03;1.92;;;;;;;;;;4968653;28;20038;-77
2023/04/23 10:12:43;;;;;;;2.22;2.00;;;;;;;;;;4966533;28;20026;-76
2023/04/23 10:15:09;;;;;;;2.97;2.17;;;;;;;;;;4968269;28;20026;-78
2023/04/23 10:17:36;;;;;;;1.15;1.08;;;;;;;;;;4969171;28;20031;-77
2023/04/23 10:20:02;;;;;;;1.95;1.80;;;;;;;;;;4966913;28;20018;-77
2023/04/23 10:22:29;;;;;;;2.53;1.88;;;;;;;;;;4968563;28;20071;-77
2023/04/23 10:24:59;;;;;;;2.25;1.60;;;;;;;;;;4985289;28;20503;-77
2023/04/23 10:27:29;;;;;;;2.50;1.88;;;;;;;;;;4968745;28;20097;-77
2023/04/23 10:29:56;;;;;;;2.25;1.92;;;;;;;;;;4967222;28;20033;-77
2023/04/23 10:32:23;;;;;;;2.65;1.75;;;;;;;;;;4968685;28;20027;-76
2023/04/23 10:34:49;;;;;;;1.75;1.55;;;;;;;;;;4968062;28;20562;-78
2023/04/23 10:37:18;;;;;;;2.70;2.20;;;;;;;;;;4963970;28;20034;-78
2023/04/23 10:39:46;;;;;;;3.97;2.72;;;;;;;;;;4983899;28;20571;-78
2023/04/23 10:42:12;;;;;;;2.88;2.13;;;;;;;;;;4970796;28;20038;-77
2023/04/23 10:44:40;;;;;;;2.70;1.85;;;;;;;;;;4968348;28;20114;-78
2023/04/23 10:47:10;;;;;;;1.60;1.50;;;;;;;;;;4966564;28;20041;-78
2023/04/23 10:49:37;;;;;;;1.90;1.80;;;;;;;;;;4967650;28;20035;-78
2023/04/23 10:52:08;;;;;;;4.20;3.45;;;;;;;;;;4968198;28;20019;-79
2023/04/23 10:54:35;;;;;;;1.88;1.70;;;;;;;;;;4973866;28;20041;-77
2023/04/23 10:57:05;;;;;;;1.90;1.55;;;;;;;;;;4969794;28;20037;-77
2023/04/23 10:59:33;;;;;;;1.95;1.38;;;;;;;;;;4975436;28;20086;-77
2023/04/23 11:02:10;;;;;;;1.73;1.27;;;;;;;;;;4977048;28;20047;-77
2023/04/23 11:04:45;;;;;;;1.70;1.38;;;;;;;;;;4975135;28;20026;-76
2023/04/23 11:07:12;;;;;;;2.50;2.20;;;;;;;;;;4971207;28;20039;-78
2023/04/23 11:09:47;;;;;;;1.80;1.70;;;;;;;;;;4977184;28;20034;-77
2023/04/23 11:12:31;;;;;;;1.42;1.33;;;;;;;;;;4976648;28;20035;-77
2023/04/23 11:15:00;;;;;;;1.75;1.60;;;;;;;;;;4969423;28;20610;-76
2023/04/23 11:17:31;;;;;;;1.70;1.60;;;;;;;;;;4973297;28;20119;-77
2023/04/23 11:20:05;;;;;;;1.60;1.50;;;;;;;;;;4986550;28;20025;-77
2023/04/23 11:23:04;;;;;;;1.95;1.70;;;;;;;;;;4971845;28;20380;-77
2023/04/23 11:25:29;;;;;;;1.70;1.60;;;;;;;;;;4967868;28;20067;-77
2023/04/23 11:27:57;;;;;;;2.75;1.83;;;;;;;;;;4971516;28;20479;-78
2023/04/23 11:30:26;;;;;;;1.50;1.40;;;;;;;;;;4974411;28;20022;-78
2023/04/23 11:32:54;;;;;;;1.50;1.40;;;;;;;;;;4974299;28;20015;-77
2023/04/23 11:35:22;;;;;;;2.25;1.63;;;;;;;;;;4972038;28;20118;-77
2023/04/23 11:37:48;;;;;;;1.58;1.48;;;;;;;;;;4972997;28;20050;-77
2023/04/23 11:40:18;;;;;;;3.72;3.42;;;;;;;;;;4974428;28;20018;-77
2023/04/23 11:42:53;;;;;;;3.23;1.53;;;;;;;;;;4973613;28;20394;-77
2023/04/23 11:45:21;;;;;;;2.65;1.60;;;;;;;;;;4970149;28;20331;-77
2023/04/23 11:47:54;;;;;;;1.80;1.70;;;;;;;;;;4971895;28;20042;-77
2023/04/23 11:50:24;;;;;;;1.65;1.55;;;;;;;;;;4970801;28;20062;-77
2023/04/23 11:52:50;;;;;;;2.35;2.15;;;;;;;;;;4990596;28;20027;-77
2023/04/23 11:55:17;;;;;;;1.45;1.25;;;;;;;;;;4975153;28;20101;-77
2023/04/23 11:57:45;;;;;;;1.80;1.70;;;;;;;;;;4970684;28;20034;-77
2023/04/23 12:00:14;;;;;;;3.30;2.50;;;;;;;;;;4972726;28;20066;-77
2023/04/23 12:02:58;;;;;;;3.27;2.70;;;;;;;;;;4978111;28;20026;-77
2023/04/23 12:05:28;;;;;;;3.97;1.77;;;;;;;;;;4971577;28;20041;-77
2023/04/23 12:07:53;;;;;;;3.38;1.92;;;;;;;;;;4969055;28;20031;-77
2023/04/23 12:10:23;;;;;;;1.85;1.73;;;;;;;;;;4972749;28;20054;-77
2023/04/23 12:12:51;;;;;;;2.00;1.80;;;;;;;;;;4969725;28;20035;-77
2023/04/23 12:15:16;;;;;;;3.15;2.30;;;;;;;;;;4970776;28;20268;-77
2023/04/23 12:17:42;;;;;;;3.80;2.15;;;;;;;;;;4974008;28;20037;-77
2023/04/23 12:20:16;;;;;;;4.90;3.30;;;;;;;;;;4971824;28;20083;-77
2023/04/23 12:22:41;;;;;;;1.60;1.50;;;;;;;;;;4973502;28;20030;-77
2023/04/23 12:25:08;;;;;;;1.90;1.80;;;;;;;;;;4968069;28;20039;-77
2023/04/23 12:27:41;;;;;;;3.28;2.35;;;;;;;;;;4970002;28;20030;-77
2023/04/23 12:30:08;;;;;;;2.83;1.83;;;;;;;;;;4974871;28;20086;-77
2023/04/23 12:32:34;;;;;;;2.58;1.75;;;;;;;;;;4973007;28;20038;-77
2023/04/23 12:34:59;;;;;;;2.15;1.80;;;;;;;;;;4970231;28;20022;-77
2023/04/23 12:37:29;;;;;;;2.50;1.80;;;;;;;;;;4969066;28;20034;-77
2023/04/23 12:39:58;;;;;;;1.40;1.30;;;;;;;;;;4972730;28;20015;-78
2023/04/23 12:42:23;;;;;;;1.67;1.55;;;;;;;;;;4972758;28;20657;-78
2023/04/23 12:44:50;;;;;;;1.83;1.60;;;;;;;;;;4975143;28;20022;-77
2023/04/23 12:47:18;;;;;;;1.95;1.50;;;;;;;;;;4970501;28;20089;-77
2023/04/23 12:49:44;;;;;;;2.13;1.90;;;;;;;;;;4973174;28;20033;-77
2023/04/23 12:52:10;;;;;;;2.45;1.52;;;;;;;;;;4973382;28;20031;-77
2023/04/23 12:54:38;;;;;;;2.80;2.20;;;;;;;;;;4970228;28;20167;-78
2023/04/23 12:57:09;;;;;;;1.55;1.45;;;;;;;;;;4967561;28;20023;-77
2023/04/23 12:59:35;;;;;;;2.78;1.60;;;;;;;;;;4982809;28;20088;-77
2023/04/23 13:02:00;;;;;;;2.50;2.30;;;;;;;;;;4974972;28;20418;-78
2023/04/23 13:04:27;;;;;;;19.63;11.80;;;;;;;;;;4957438;28;83956;-77
2023/04/23 13:06:53;;;;;;;4.88;2.90;;;;;;;;;;4972204;28;20090;-78
2023/04/23 13:09:20;;;;;;;1.92;1.80;;;;;;;;;;4972331;28;20113;-77
2023/04/23 13:11:48;;;;;;;2.67;2.38;;;;;;;;;;4970575;28;20031;-78
2023/04/23 13:14:14;;;;;;;3.97;2.20;;;;;;;;;;4970466;28;20035;-77
2023/04/23 13:16:40;;;;;;;1.58;1.48;;;;;;;;;;4970973;28;20029;-77
2023/04/23 13:19:05;;;;;;;2.97;1.80;;;;;;;;;;4973166;28;20027;-77
2023/04/23 13:21:31;;;;;;;1.67;1.50;;;;;;;;;;4968471;28;20055;-76
2023/04/23 13:23:56;;;;;;;4.13;3.20;;;;;;;;;;4968191;28;20034;-77
2023/04/23 13:26:22;;;;;;;6.57;3.42;;;;;;;;;;4963103;28;20035;-77
2023/04/23 13:28:47;;;;;;;3.00;2.33;;;;;;;;;;4971346;28;20038;-76
2023/04/23 13:31:13;;;;;;;3.10;2.25;;;;;;;;;;4963437;28;20035;-77
2023/04/23 13:33:40;;;;;;;1.40;1.30;;;;;;;;;;4971165;28;20813;-77
2023/04/23 13:36:06;;;;;;;10.23;4.75;;;;;;;;;;4966354;28;20030;-77
2023/04/23 13:38:33;;;;;;;3.20;1.90;;;;;;;;;;4983946;28;20029;-77
2023/04/23 13:40:58;;;;;;;2.10;1.90;;;;;;;;;;4969910;28;20027;-78
2023/04/23 13:43:23;;;;;;;2.47;1.80;;;;;;;;;;4969206;28;20029;-77
2023/04/23 13:45:49;;;;;;;1.48;1.38;;;;;;;;;;4968517;28;20072;-78
2023/04/23 13:48:15;;;;;;;4.28;3.50;;;;;;;;;;4968653;28;20038;-78
2023/04/23 13:50:43;;;;;;;2.10;1.90;;;;;;;;;;4968936;28;20043;-77
2023/04/23 13:53:09;;;;;;;1.85;1.75;;;;;;;;;;4970334;28;20490;-78
2023/04/23 13:55:35;;;;;;;1.42;1.33;;;;;;;;;;4967990;28;20037;-78
2023/04/23 13:58:00;;;;;;;1.92;1.58;;;;;;;;;;4968831;28;20701;-77
2023/04/23 14:00:28;;;;;;;2.10;1.90;;;;;;;;;;4970133;28;20026;-76
2023/04/23 14:02:53;;;;;;;6.95;3.80;;;;;;;;;;4968689;28;20031;-77
2023/04/23 14:05:18;;;;;;;2.05;1.55;;;;;;;;;;4983648;28;20030;-77
2023/04/23 14:07:44;;;;;;;1.88;1.73;;;;;;;;;;4967634;28;20034;-77
2023/04/23 14:10:10;;;;;;;1.85;1.75;;;;;;;;;;4966292;28;20027;-77
2023/04/23 14:12:37;;;;;;;2.05;1.85;;;;;;;;;;4968845;28;20076;-77
2023/04/23 14:15:03;;;;;;;1.63;1.50;;;;;;;;;;4967377;28;20070;-77
2023/04/23 14:17:29;;;;;;;2.08;1.90;;;;;;;;;;4966000;28;20034;-78
2023/04/23 14:19:54;;;;;;;2.33;1.65;;;;;;;;;;4967824;28;20050;-77
2023/04/23 14:22:19;;;;;;;1.90;1.80;;;;;;;;;;4957247;28;21156;-77
2023/04/23 14:24:48;;;;;;;2.53;1.95;;;;;;;;;;4979969;28;20153;-78
2023/04/23 14:27:14;;;;;;;1.67;1.50;;;;;;;;;;4964563;28;20039;-78
2023/04/23 14:29:55;;;;;;;1.65;1.55;;;;;;;;;;4968341;28;20019;-77
2023/04/23 14:32:20;;;;;;;1.55;1.33;;;;;;;;;;4969178;28;20046;-78
2023/04/23 14:34:46;;;;;;;1.90;1.38;;;;;;;;;;4968527;28;20993;-78
2023/04/23 14:37:11;;;;;;;1.45;1.35;;;;;;;;;;4981529;28;20038;-78
2023/04/23 14:39:37;;;;;;;1.95;1.77;;;;;;;;;;4957612;28;20035;-78